sensor_id;sensor_type;location;lat;lon;timestamp;pressure;altitude;pressure_sealevel;temperature;humidity
28628;BME280;15815;46.760;19.604;2023-04-26T00:01:07;99577.13;;;8.53;86.29
28628;BME280;15815;46.760;19.604;2023-04-26T00:03:33;99579.53;;;8.51;86.24
28628;BME280;15815;46.760;19.604;2023-04-26T00:05:59;99578.72;;;8.47;85.69
28628;BME280;15815;46.760;19.604;2023-04-26T00:08:26;99591.94;;;8.50;86.02
28628;BME280;15815;46.760;19.604;2023-04-26T00:10:52;99583.53;;;8.46;86.02
28628;BME280;15815;46.760;19.604;2023-04-26T00:13:18;99583.56;;;8.43;85.44
28628;BME280;15815;46.760;19.604;2023-04-26T00:15:48;99586.75;;;8.45;85.97
28628;BME280;15815;46.760;19.604;2023-04-26T00:18:14;99589.13;;;8.46;86.41
28628;BME280;15815;46.760;19.604;2023-04-26T00:20:41;99589.91;;;8.54;86.54
28628;BME280;15815;46.760;19.604;2023-04-26T00:23:06;99550.41;;;8.30;86.27
28628;BME280;15815;46.760;19.604;2023-04-26T00:25:32;99608.69;;;8.60;86.75
28628;BME280;15815;46.760;19.604;2023-04-26T00:27:57;99604.69;;;8.58;86.39
28628;BME280;15815;46.760;19.604;2023-04-26T00:30:28;99588.31;;;8.53;87.05
28628;BME280;15815;46.760;19.604;2023-04-26T00:32:54;99586.72;;;8.52;86.66
28628;BME280;15815;46.760;19.604;2023-04-26T00:35:19;99603.84;;;8.64;87.42
28628;BME280;15815;46.760;19.604;2023-04-26T00:37:45;99573.53;;;8.45;87.44
28628;BME280;15815;46.760;19.604;2023-04-26T00:40:12;99565.94;;;8.46;87.55
28628;BME280;15815;46.760;19.604;2023-04-26T00:42:38;99591.88;;;8.60;87.73
28628;BME280;15815;46.760;19.604;2023-04-26T00:45:05;99598.59;;;8.70;87.19
28628;BME280;15815;46.760;19.604;2023-04-26T00:47:30;99617.41;;;8.73;88.39
28628;BME280;15815;46.760;19.604;2023-04-26T00:49:56;99600.25;;;8.64;88.46
28628;BME280;15815;46.760;19.604;2023-04-26T00:52:22;99580.25;;;8.62;88.04
28628;BME280;15815;46.760;19.604;2023-04-26T00:54:49;99575.50;;;8.55;88.04
28628;BME280;15815;46.760;19.604;2023-04-26T00:57:16;99614.16;;;8.82;88.89
28628;BME280;15815;46.760;19.604;2023-04-26T00:59:42;99584.25;;;8.64;88.56
28628;BME280;15815;46.760;19.604;2023-04-26T01:02:09;99570.66;;;8.59;88.37
28628;BME280;15815;46.760;19.604;2023-04-26T01:04:34;99581.00;;;8.70;88.86
28628;BME280;15815;46.760;19.604;2023-04-26T01:07:01;99592.22;;;8.70;89.34
28628;BME280;15815;46.760;19.604;2023-04-26T01:09:30;99577.88;;;8.57;89.32
28628;BME280;15815;46.760;19.604;2023-04-26T01:11:59;99608.94;;;8.84;88.86
28628;BME280;15815;46.760;19.604;2023-04-26T01:14:25;99621.75;;;8.85;89.36
28628;BME280;15815;46.760;19.604;2023-04-26T01:16:51;99593.78;;;8.74;88.65
28628;BME280;15815;46.760;19.604;2023-04-26T01:19:18;99608.94;;;8.84;88.83
28628;BME280;15815;46.760;19.604;2023-04-26T01:21:44;99621.28;;;8.93;88.63
28628;BME280;15815;46.760;19.604;2023-04-26T01:24:10;99610.56;;;8.81;88.37
28628;BME280;15815;46.760;19.604;2023-04-26T01:26:39;99616.19;;;8.81;89.10
28628;BME280;15815;46.760;19.604;2023-04-26T01:29:26;99630.50;;;8.94;89.68
28628;BME280;15815;46.760;19.604;2023-04-26T01:31:52;99624.13;;;8.90;88.69
28628;BME280;15815;46.760;19.604;2023-04-26T01:34:17;99596.19;;;8.72;89.22
28628;BME280;15815;46.760;19.604;2023-04-26T01:36:43;99592.56;;;8.75;89.25
28628;BME280;15815;46.760;19.604;2023-04-26T01:39:08;99612.53;;;8.84;89.18
28628;BME280;15815;46.760;19.604;2023-04-26T01:41:34;99617.75;;;8.82;89.47
28628;BME280;15815;46.760;19.604;2023-04-26T01:44:02;99621.72;;;8.88;88.89
28628;BME280;15815;46.760;19.604;2023-04-26T01:46:27;99644.47;;;9.05;89.50
28628;BME280;15815;46.760;19.604;2023-04-26T01:48:53;99640.50;;;8.95;89.43
28628;BME280;15815;46.760;19.604;2023-04-26T01:51:18;99609.00;;;8.73;89.32
28628;BME280;15815;46.760;19.604;2023-04-26T01:53:46;99627.28;;;8.95;89.23
28628;BME280;15815;46.760;19.604;2023-04-26T01:56:12;99626.91;;;8.90;88.79
28628;BME280;15815;46.760;19.604;2023-04-26T01:58:38;99640.47;;;8.98;89.18
28628;BME280;15815;46.760;19.604;2023-04-26T02:01:08;99651.25;;;9.07;89.57
28628;BME280;15815;46.760;19.604;2023-04-26T02:03:34;99630.44;;;9.01;89.12
28628;BME280;15815;46.760;19.604;2023-04-26T02:06:01;99631.22;;;9.02;88.91
28628;BME280;15815;46.760;19.604;2023-04-26T02:08:26;99640.03;;;9.04;89.16
28628;BME280;15815;46.760;19.604;2023-04-26T02:10:52;99655.22;;;9.10;88.83
28628;BME280;15815;46.760;19.604;2023-04-26T02:13:17;99631.28;;;8.94;88.90
28628;BME280;15815;46.760;19.604;2023-04-26T02:15:47;99647.28;;;8.97;88.78
28628;BME280;15815;46.760;19.604;2023-04-26T02:18:13;99627.31;;;8.88;88.66
28628;BME280;15815;46.760;19.604;2023-04-26T02:20:43;99624.97;;;8.83;88.99
28628;BME280;15815;46.760;19.604;2023-04-26T02:23:10;99651.69;;;8.98;88.72
28628;BME280;15815;46.760;19.604;2023-04-26T02:25:36;99656.06;;;8.99;89.06
28628;BME280;15815;46.760;19.604;2023-04-26T02:28:03;99631.72;;;8.89;88.42
28628;BME280;15815;46.760;19.604;2023-04-26T02:30:30;99642.91;;;8.93;88.25
28628;BME280;15815;46.760;19.604;2023-04-26T02:32:56;99654.47;;;9.06;88.63
28628;BME280;15815;46.760;19.604;2023-04-26T02:35:22;99654.84;;;9.08;88.25
28628;BME280;15815;46.760;19.604;2023-04-26T02:37:49;99659.63;;;9.11;88.91
28628;BME280;15815;46.760;19.604;2023-04-26T02:40:15;99665.66;;;9.06;88.96
28628;BME280;15815;46.760;19.604;2023-04-26T02:42:40;99642.50;;;8.94;89.09
28628;BME280;15815;46.760;19.604;2023-04-26T02:45:08;99647.72;;;8.92;88.86
28628;BME280;15815;46.760;19.604;2023-04-26T02:47:34;99672.06;;;9.10;88.19
28628;BME280;15815;46.760;19.604;2023-04-26T02:49:59;99627.00;;;8.79;88.35
28628;BME280;15815;46.760;19.604;2023-04-26T02:52:26;99670.88;;;9.07;88.30
28628;BME280;15815;46.760;19.604;2023-04-26T02:54:51;99669.25;;;9.10;88.58
28628;BME280;15815;46.760;19.604;2023-04-26T02:57:19;99650.50;;;8.96;88.16
28628;BME280;15815;46.760;19.604;2023-04-26T02:59:44;99670.06;;;9.07;87.99
28628;BME280;15815;46.760;19.604;2023-04-26T03:02:16;99680.88;;;9.08;87.88
28628;BME280;15815;46.760;19.604;2023-04-26T03:04:41;99692.09;;;9.08;87.63
28628;BME280;15815;46.760;19.604;2023-04-26T03:07:07;99653.41;;;8.78;87.36
28628;BME280;15815;46.760;19.604;2023-04-26T03:09:32;99662.59;;;8.82;87.65
28628;BME280;15815;46.760;19.604;2023-04-26T03:12:01;99706.53;;;8.99;87.09
28628;BME280;15815;46.760;19.604;2023-04-26T03:14:26;99705.38;;;8.93;87.02
28628;BME280;15815;46.760;19.604;2023-04-26T03:16:52;99666.66;;;8.67;86.96
28628;BME280;15815;46.760;19.604;2023-04-26T03:19:19;99707.38;;;8.93;86.46
28628;BME280;15815;46.760;19.604;2023-04-26T03:21:44;99693.00;;;8.87;87.61
28628;BME280;15815;46.760;19.604;2023-04-26T03:24:10;99685.09;;;8.61;86.40
28628;BME280;15815;46.760;19.604;2023-04-26T03:26:36;99699.88;;;8.68;86.79
28628;BME280;15815;46.760;19.604;2023-04-26T03:29:02;99673.56;;;8.52;86.13
28628;BME280;15815;46.760;19.604;2023-04-26T03:31:31;99726.66;;;8.73;86.44
28628;BME280;15815;46.760;19.604;2023-04-26T03:33:56;99688.75;;;8.51;86.46
28628;BME280;15815;46.760;19.604;2023-04-26T03:36:22;99697.16;;;8.51;85.69
28628;BME280;15815;46.760;19.604;2023-04-26T03:38:49;99720.72;;;8.64;86.37
28628;BME280;15815;46.760;19.604;2023-04-26T03:41:15;99734.66;;;8.75;86.27
28628;BME280;15815;46.760;19.604;2023-04-26T03:43:41;99722.69;;;8.67;86.14
28628;BME280;15815;46.760;19.604;2023-04-26T03:46:08;99711.53;;;8.60;86.18
28628;BME280;15815;46.760;19.604;2023-04-26T03:48:34;99741.88;;;8.76;85.32
28628;BME280;15815;46.760;19.604;2023-04-26T03:51:00;99705.56;;;8.51;85.90
28628;BME280;15815;46.760;19.604;2023-04-26T03:53:31;99728.28;;;8.67;86.26
28628;BME280;15815;46.760;19.604;2023-04-26T03:55:57;99746.66;;;8.75;84.65
28628;BME280;15815;46.760;19.604;2023-04-26T03:58:26;99734.69;;;8.67;84.67
28628;BME280;15815;46.760;19.604;2023-04-26T04:00:55;99716.34;;;8.56;84.81
28628;BME280;15815;46.760;19.604;2023-04-26T04:03:21;99761.06;;;8.84;84.90
28628;BME280;15815;46.760;19.604;2023-04-26T04:05:47;99748.25;;;8.83;84.48
28628;BME280;15815;46.760;19.604;2023-04-26T04:08:12;99765.03;;;8.94;83.64
28628;BME280;15815;46.760;19.604;2023-04-26T04:10:39;99747.81;;;8.92;82.91
28628;BME280;15815;46.760;19.604;2023-04-26T04:13:04;99732.94;;;9.06;82.28
28628;BME280;15815;46.760;19.604;2023-04-26T04:18:02;99782.81;;;9.98;81.07
28628;BME280;15815;46.760;19.604;2023-04-26T04:20:29;99759.47;;;10.08;81.63
28628;BME280;15815;46.760;19.604;2023-04-26T04:22:55;99763.78;;;10.24;83.10
28628;BME280;15815;46.760;19.604;2023-04-26T04:25:20;99799.09;;;10.62;83.50
28628;BME280;15815;46.760;19.604;2023-04-26T04:27:47;99795.91;;;10.98;81.49
28628;BME280;15815;46.760;19.604;2023-04-26T04:30:12;99791.56;;;10.90;85.63
28628;BME280;15815;46.760;19.604;2023-04-26T04:32:38;99791.53;;;10.93;84.63
28628;BME280;15815;46.760;19.604;2023-04-26T04:35:05;99786.09;;;10.79;84.90
28628;BME280;15815;46.760;19.604;2023-04-26T04:37:30;99815.41;;;11.12;84.19
28628;BME280;15815;46.760;19.604;2023-04-26T04:39:56;99808.59;;;11.43;81.35
28628;BME280;15815;46.760;19.604;2023-04-26T04:42:21;99798.69;;;11.62;82.25
28628;BME280;15815;46.760;19.604;2023-04-26T04:44:47;99804.44;;;12.09;82.79
28628;BME280;15815;46.760;19.604;2023-04-26T04:47:12;99808.16;;;12.49;82.48
28628;BME280;15815;46.760;19.604;2023-04-26T04:49:38;99818.19;;;12.74;83.78
28628;BME280;15815;46.760;19.604;2023-04-26T04:52:04;99825.66;;;12.84;82.69
28628;BME280;15815;46.760;19.604;2023-04-26T04:54:31;99807.00;;;12.90;79.63
28628;BME280;15815;46.760;19.604;2023-04-26T04:56:57;99801.16;;;13.40;83.12
28628;BME280;15815;46.760;19.604;2023-04-26T04:59:24;99814.16;;;13.90;83.11
28628;BME280;15815;46.760;19.604;2023-04-26T05:01:50;99820.88;;;14.12;77.72
28628;BME280;15815;46.760;19.604;2023-04-26T05:04:19;99815.16;;;14.32;73.33
28628;BME280;15815;46.760;19.604;2023-04-26T05:06:45;99836.34;;;14.73;79.93
28628;BME280;15815;46.760;19.604;2023-04-26T05:09:10;99818.34;;;14.96;78.64
28628;BME280;15815;46.760;19.604;2023-04-26T05:11:38;99829.06;;;15.17;73.28
28628;BME280;15815;46.760;19.604;2023-04-26T05:14:04;99830.41;;;15.54;79.09
28628;BME280;15815;46.760;19.604;2023-04-26T05:16:29;99842.59;;;15.80;77.02
28628;BME280;15815;46.760;19.604;2023-04-26T05:18:55;99840.44;;;15.84;75.07
28628;BME280;15815;46.760;19.604;2023-04-26T05:21:21;99833.66;;;15.69;74.28
28628;BME280;15815;46.760;19.604;2023-04-26T05:23:46;99838.66;;;16.03;70.76
28628;BME280;15815;46.760;19.604;2023-04-26T05:26:15;99845.78;;;16.33;64.69
28628;BME280;15815;46.760;19.604;2023-04-26T05:28:41;99835.06;;;17.10;69.29
28628;BME280;15815;46.760;19.604;2023-04-26T05:31:10;99842.41;;;16.85;63.92
28628;BME280;15815;46.760;19.604;2023-04-26T05:33:36;99855.41;;;17.30;67.39
28628;BME280;15815;46.760;19.604;2023-04-26T05:36:01;99862.03;;;17.71;65.13
28628;BME280;15815;46.760;19.604;2023-04-26T05:38:28;99832.81;;;17.70;60.55
28628;BME280;15815;46.760;19.604;2023-04-26T05:40:53;99861.22;;;18.32;59.61
28628;BME280;15815;46.760;19.604;2023-04-26T05:43:19;99836.13;;;18.40;57.53
28628;BME280;15815;46.760;19.604;2023-04-26T05:45:54;99855.19;;;18.79;53.90
28628;BME280;15815;46.760;19.604;2023-04-26T05:48:21;99878.66;;;19.38;57.33
28628;BME280;15815;46.760;19.604;2023-04-26T05:50:50;99874.38;;;19.25;54.27
28628;BME280;15815;46.760;19.604;2023-04-26T05:53:21;99861.06;;;18.85;54.58
28628;BME280;15815;46.760;19.604;2023-04-26T05:55:47;99881.66;;;18.98;50.67
28628;BME280;15815;46.760;19.604;2023-04-26T05:58:13;99865.50;;;19.13;53.29
28628;BME280;15815;46.760;19.604;2023-04-26T06:00:38;99868.03;;;19.66;51.53
28628;BME280;15815;46.760;19.604;2023-04-26T06:03:04;99882.72;;;19.92;50.60
28628;BME280;15815;46.760;19.604;2023-04-26T06:05:30;99870.84;;;20.27;50.52
28628;BME280;15815;46.760;19.604;2023-04-26T06:07:56;99880.13;;;20.55;50.10
28628;BME280;15815;46.760;19.604;2023-04-26T06:10:23;99887.38;;;20.65;47.47
28628;BME280;15815;46.760;19.604;2023-04-26T06:12:49;99906.03;;;20.99;49.55
28628;BME280;15815;46.760;19.604;2023-04-26T06:15:17;99891.25;;;21.63;46.71
28628;BME280;15815;46.760;19.604;2023-04-26T06:17:43;99890.84;;;21.55;47.03
28628;BME280;15815;46.760;19.604;2023-04-26T06:20:09;99927.22;;;22.08;48.15
28628;BME280;15815;46.760;19.604;2023-04-26T06:22:36;99898.56;;;21.64;47.48
28628;BME280;15815;46.760;19.604;2023-04-26T06:25:04;99897.91;;;22.13;44.06
28628;BME280;15815;46.760;19.604;2023-04-26T06:27:30;99925.03;;;22.18;46.42
28628;BME280;15815;46.760;19.604;2023-04-26T06:29:56;99908.59;;;22.63;45.78
28628;BME280;15815;46.760;19.604;2023-04-26T06:32:21;99905.94;;;22.59;45.41
28628;BME280;15815;46.760;19.604;2023-04-26T06:34:50;99906.69;;;23.09;43.07
28628;BME280;15815;46.760;19.604;2023-04-26T06:37:16;99913.78;;;23.14;43.21
28628;BME280;15815;46.760;19.604;2023-04-26T06:39:45;99944.50;;;23.13;41.65
28628;BME280;15815;46.760;19.604;2023-04-26T06:42:11;99941.72;;;23.39;41.87
28628;BME280;15815;46.760;19.604;2023-04-26T06:44:36;99938.94;;;23.65;42.74
28628;BME280;15815;46.760;19.604;2023-04-26T06:47:03;99930.69;;;23.99;41.37
28628;BME280;15815;46.760;19.604;2023-04-26T06:49:28;99937.88;;;24.15;39.90
28628;BME280;15815;46.760;19.604;2023-04-26T06:51:54;99935.13;;;24.00;40.13
28628;BME280;15815;46.760;19.604;2023-04-26T06:54:20;99953.06;;;24.78;40.16
28628;BME280;15815;46.760;19.604;2023-04-26T06:56:46;99964.78;;;24.17;39.41
28628;BME280;15815;46.760;19.604;2023-04-26T06:59:11;99949.34;;;25.09;38.65
28628;BME280;15815;46.760;19.604;2023-04-26T07:01:37;99965.25;;;24.68;38.70
28628;BME280;15815;46.760;19.604;2023-04-26T07:04:05;99963.44;;;25.50;36.67
28628;BME280;15815;46.760;19.604;2023-04-26T07:06:32;99934.72;;;25.67;37.64
28628;BME280;15815;46.760;19.604;2023-04-26T07:08:59;99963.31;;;25.87;37.18
28628;BME280;15815;46.760;19.604;2023-04-26T07:11:25;99940.09;;;26.46;35.48
28628;BME280;15815;46.760;19.604;2023-04-26T07:13:50;99951.38;;;26.67;36.07
28628;BME280;15815;46.760;19.604;2023-04-26T07:16:16;99964.72;;;26.70;36.36
28628;BME280;15815;46.760;19.604;2023-04-26T07:18:42;99980.19;;;26.39;33.16
28628;BME280;15815;46.760;19.604;2023-04-26T07:21:07;99966.06;;;26.63;33.94
28628;BME280;15815;46.760;19.604;2023-04-26T07:23:35;99972.84;;;26.94;33.39
28628;BME280;15815;46.760;19.604;2023-04-26T07:26:01;99971.50;;;27.17;32.79
28628;BME280;15815;46.760;19.604;2023-04-26T07:28:26;99963.38;;;27.21;32.50
28628;BME280;15815;46.760;19.604;2023-04-26T07:30:55;99955.25;;;26.97;30.16
28628;BME280;15815;46.760;19.604;2023-04-26T07:33:20;99954.22;;;27.06;32.07
28628;BME280;15815;46.760;19.604;2023-04-26T07:35:56;99962.47;;;27.49;31.30
28628;BME280;15815;46.760;19.604;2023-04-26T07:38:22;99947.91;;;28.29;30.75
28628;BME280;15815;46.760;19.604;2023-04-26T07:40:48;99956.25;;;27.91;30.05
28628;BME280;15815;46.760;19.604;2023-04-26T07:43:15;99972.59;;;28.30;29.39
28628;BME280;15815;46.760;19.604;2023-04-26T07:45:41;99983.00;;;27.97;28.32
28628;BME280;15815;46.760;19.604;2023-04-26T07:48:07;99965.75;;;27.81;28.92
28628;BME280;15815;46.760;19.604;2023-04-26T07:50:32;99969.03;;;28.07;27.70
28628;BME280;15815;46.760;19.604;2023-04-26T07:52:58;99981.00;;;27.81;26.94
28628;BME280;15815;46.760;19.604;2023-04-26T07:55:24;99979.50;;;28.10;27.22
28628;BME280;15815;46.760;19.604;2023-04-26T07:57:49;99967.66;;;28.14;28.12
28628;BME280;15815;46.760;19.604;2023-04-26T08:00:15;99968.03;;;28.40;27.50
28628;BME280;15815;46.760;19.604;2023-04-26T08:02:41;99974.28;;;27.51;25.37
28628;BME280;15815;46.760;19.604;2023-04-26T08:05:07;99982.00;;;27.89;27.56
28628;BME280;15815;46.760;19.604;2023-04-26T08:07:34;99980.75;;;28.61;25.49
28628;BME280;15815;46.760;19.604;2023-04-26T08:09:59;99970.09;;;28.45;26.20
28628;BME280;15815;46.760;19.604;2023-04-26T08:12:25;99979.19;;;28.60;25.95
28628;BME280;15815;46.760;19.604;2023-04-26T08:14:59;99965.28;;;28.18;25.11
28628;BME280;15815;46.760;19.604;2023-04-26T08:17:27;99971.97;;;28.73;25.53
28628;BME280;15815;46.760;19.604;2023-04-26T08:19:52;99981.72;;;28.70;24.16
28628;BME280;15815;46.760;19.604;2023-04-26T08:22:18;99977.50;;;29.01;24.80
28628;BME280;15815;46.760;19.604;2023-04-26T08:24:49;99973.81;;;28.40;24.39
28628;BME280;15815;46.760;19.604;2023-04-26T08:27:15;99982.56;;;28.65;25.38
28628;BME280;15815;46.760;19.604;2023-04-26T08:29:41;99966.13;;;29.33;24.85
28628;BME280;15815;46.760;19.604;2023-04-26T08:32:06;99978.66;;;29.41;24.11
28628;BME280;15815;46.760;19.604;2023-04-26T08:34:37;99986.44;;;29.27;22.66
28628;BME280;15815;46.760;19.604;2023-04-26T08:37:03;99991.97;;;29.01;22.76
28628;BME280;15815;46.760;19.604;2023-04-26T08:39:28;99993.34;;;28.94;24.33
28628;BME280;15815;46.760;19.604;2023-04-26T08:42:04;99995.94;;;29.71;23.72
28628;BME280;15815;46.760;19.604;2023-04-26T08:44:33;99994.38;;;29.70;23.10
28628;BME280;15815;46.760;19.604;2023-04-26T08:47:21;100011.19;;;28.98;22.76
28628;BME280;15815;46.760;19.604;2023-04-26T08:49:53;99987.59;;;29.67;22.30
28628;BME280;15815;46.760;19.604;2023-04-26T08:52:19;100008.66;;;29.87;23.32
28628;BME280;15815;46.760;19.604;2023-04-26T08:54:45;99997.34;;;28.91;22.73
28628;BME280;15815;46.760;19.604;2023-04-26T08:57:12;100012.63;;;29.83;22.64
28628;BME280;15815;46.760;19.604;2023-04-26T08:59:38;99992.03;;;29.68;22.88
28628;BME280;15815;46.760;19.604;2023-04-26T09:02:05;100007.84;;;29.67;21.84
28628;BME280;15815;46.760;19.604;2023-04-26T09:04:30;100012.94;;;29.61;22.43
28628;BME280;15815;46.760;19.604;2023-04-26T09:07:01;100006.81;;;30.08;23.01
28628;BME280;15815;46.760;19.604;2023-04-26T09:09:34;100008.53;;;30.17;21.77
28628;BME280;15815;46.760;19.604;2023-04-26T09:12:00;99996.22;;;30.29;22.35
28628;BME280;15815;46.760;19.604;2023-04-26T09:14:26;99996.31;;;30.05;22.16
28628;BME280;15815;46.760;19.604;2023-04-26T09:16:52;100020.28;;;30.24;20.88
28628;BME280;15815;46.760;19.604;2023-04-26T09:19:40;100029.38;;;30.15;21.68
28628;BME280;15815;46.760;19.604;2023-04-26T09:22:06;100030.31;;;30.04;21.91
28628;BME280;15815;46.760;19.604;2023-04-26T09:24:51;100037.50;;;30.35;21.15
28628;BME280;15815;46.760;19.604;2023-04-26T09:27:20;100027.91;;;29.84;21.75
28628;BME280;15815;46.760;19.604;2023-04-26T09:30:24;100000.31;;;28.80;21.60
28628;BME280;15815;46.760;19.604;2023-04-26T09:33:00;100021.97;;;29.52;21.76
28628;BME280;15815;46.760;19.604;2023-04-26T09:40:21;100028.22;;;29.80;23.06
28628;BME280;15815;46.760;19.604;2023-04-26T09:43:07;100021.09;;;30.57;20.88
28628;BME280;15815;46.760;19.604;2023-04-26T09:45:51;99997.78;;;29.93;21.93
28628;BME280;15815;46.760;19.604;2023-04-26T09:48:29;100020.53;;;29.64;22.59
28628;BME280;15815;46.760;19.604;2023-04-26T09:50:57;100028.69;;;29.84;22.67
28628;BME280;15815;46.760;19.604;2023-04-26T09:55:52;100018.56;;;30.16;22.27
28628;BME280;15815;46.760;19.604;2023-04-26T09:58:19;99999.50;;;30.01;22.71
28628;BME280;15815;46.760;19.604;2023-04-26T10:00:49;100017.88;;;29.66;21.59
28628;BME280;15815;46.760;19.604;2023-04-26T10:03:17;99999.75;;;30.41;22.28
28628;BME280;15815;46.760;19.604;2023-04-26T10:05:45;100014.44;;;30.62;21.67
28628;BME280;15815;46.760;19.604;2023-04-26T10:08:11;99994.88;;;30.81;21.87
28628;BME280;15815;46.760;19.604;2023-04-26T10:10:37;100013.69;;;30.42;22.03
28628;BME280;15815;46.760;19.604;2023-04-26T10:13:04;100000.75;;;30.43;21.43
28628;BME280;15815;46.760;19.604;2023-04-26T10:15:31;99993.88;;;30.09;21.55
28628;BME280;15815;46.760;19.604;2023-04-26T10:17:57;100001.69;;;29.03;21.70
28628;BME280;15815;46.760;19.604;2023-04-26T10:20:28;99999.66;;;29.22;21.80
28628;BME280;15815;46.760;19.604;2023-04-26T10:22:56;100009.22;;;29.12;21.32
28628;BME280;15815;46.760;19.604;2023-04-26T10:25:34;100007.25;;;29.26;20.75
28628;BME280;15815;46.760;19.604;2023-04-26T10:28:06;100005.66;;;29.73;21.00
28628;BME280;15815;46.760;19.604;2023-04-26T10:30:32;99987.84;;;30.07;21.41
28628;BME280;15815;46.760;19.604;2023-04-26T10:35:28;99997.31;;;28.61;22.65
28628;BME280;15815;46.760;19.604;2023-04-26T10:45:37;100009.88;;;27.81;22.70
28628;BME280;15815;46.760;19.604;2023-04-26T10:48:18;99986.19;;;27.08;21.85
28628;BME280;15815;46.760;19.604;2023-04-26T10:53:32;99983.53;;;26.15;23.71
28628;BME280;15815;46.760;19.604;2023-04-26T10:55:58;99990.09;;;26.21;24.51
28628;BME280;15815;46.760;19.604;2023-04-26T10:58:39;99992.63;;;25.80;24.50
28628;BME280;15815;46.760;19.604;2023-04-26T11:01:06;100001.53;;;25.93;24.91
28628;BME280;15815;46.760;19.604;2023-04-26T11:03:34;100008.34;;;25.96;25.11
28628;BME280;15815;46.760;19.604;2023-04-26T11:05:59;100012.53;;;26.00;23.85
28628;BME280;15815;46.760;19.604;2023-04-26T11:08:26;100008.06;;;25.82;25.24
28628;BME280;15815;46.760;19.604;2023-04-26T11:11:04;100002.31;;;25.88;25.16
28628;BME280;15815;46.760;19.604;2023-04-26T11:13:31;99999.56;;;25.62;26.36
28628;BME280;15815;46.760;19.604;2023-04-26T11:16:01;100004.00;;;25.57;24.74
28628;BME280;15815;46.760;19.604;2023-04-26T11:18:27;99991.47;;;24.81;25.55
28628;BME280;15815;46.760;19.604;2023-04-26T11:20:53;99986.28;;;24.01;25.43
28628;BME280;15815;46.760;19.604;2023-04-26T11:23:22;100005.28;;;23.18;25.95
28628;BME280;15815;46.760;19.604;2023-04-26T11:25:48;99981.22;;;23.09;27.46
28628;BME280;15815;46.760;19.604;2023-04-26T11:28:13;99976.94;;;22.40;25.90
28628;BME280;15815;46.760;19.604;2023-04-26T11:30:41;99995.88;;;21.94;27.56
28628;BME280;15815;46.760;19.604;2023-04-26T11:33:16;100010.09;;;22.03;27.13
28628;BME280;15815;46.760;19.604;2023-04-26T11:35:41;99995.78;;;22.76;28.13
28628;BME280;15815;46.760;19.604;2023-04-26T11:38:08;99989.97;;;22.41;28.29
28628;BME280;15815;46.760;19.604;2023-04-26T11:40:33;100002.13;;;22.07;27.18
28628;BME280;15815;46.760;19.604;2023-04-26T11:43:04;99988.47;;;21.63;26.92
28628;BME280;15815;46.760;19.604;2023-04-26T11:45:31;100024.09;;;21.38;27.87
28628;BME280;15815;46.760;19.604;2023-04-26T11:48:00;100024.31;;;21.25;27.78
28628;BME280;15815;46.760;19.604;2023-04-26T11:50:26;100016.50;;;21.98;27.96
28628;BME280;15815;46.760;19.604;2023-04-26T11:52:55;99990.88;;;22.18;28.84
28628;BME280;15815;46.760;19.604;2023-04-26T11:55:27;100020.50;;;22.44;28.61
28628;BME280;15815;46.760;19.604;2023-04-26T11:57:53;99999.38;;;21.88;28.87
28628;BME280;15815;46.760;19.604;2023-04-26T12:00:19;100026.19;;;21.38;28.17
28628;BME280;15815;46.760;19.604;2023-04-26T12:02:46;99997.28;;;20.70;28.94
28628;BME280;15815;46.760;19.604;2023-04-26T12:05:25;100030.34;;;20.43;27.84
28628;BME280;15815;46.760;19.604;2023-04-26T12:07:55;100028.31;;;20.16;28.88
28628;BME280;15815;46.760;19.604;2023-04-26T12:10:32;100002.78;;;20.22;30.16
28628;BME280;15815;46.760;19.604;2023-04-26T12:12:58;100032.59;;;20.81;31.00
28628;BME280;15815;46.760;19.604;2023-04-26T12:15:28;99998.59;;;20.59;28.64
28628;BME280;15815;46.760;19.604;2023-04-26T12:17:57;99997.53;;;20.81;28.59
28628;BME280;15815;46.760;19.604;2023-04-26T12:20:28;99992.47;;;20.76;30.57
28628;BME280;15815;46.760;19.604;2023-04-26T12:23:04;99983.75;;;20.19;29.31
28628;BME280;15815;46.760;19.604;2023-04-26T12:25:35;99993.94;;;20.01;29.51
28628;BME280;15815;46.760;19.604;2023-04-26T12:28:05;99970.78;;;19.99;30.74
28628;BME280;15815;46.760;19.604;2023-04-26T12:30:31;99989.75;;;20.81;31.32
28628;BME280;15815;46.760;19.604;2023-04-26T12:33:00;100012.03;;;21.01;30.27
28628;BME280;15815;46.760;19.604;2023-04-26T12:35:29;99974.38;;;20.79;30.58
28628;BME280;15815;46.760;19.604;2023-04-26T12:37:56;99994.38;;;20.27;29.37
28628;BME280;15815;46.760;19.604;2023-04-26T12:40:22;99984.81;;;20.49;30.71
28628;BME280;15815;46.760;19.604;2023-04-26T12:42:48;100000.19;;;20.51;29.96
28628;BME280;15815;46.760;19.604;2023-04-26T12:45:15;100002.59;;;20.44;30.23
28628;BME280;15815;46.760;19.604;2023-04-26T12:47:41;100019.44;;;20.14;30.15
28628;BME280;15815;46.760;19.604;2023-04-26T12:50:06;100001.50;;;20.32;31.21
28628;BME280;15815;46.760;19.604;2023-04-26T12:52:32;100004.53;;;20.28;30.34
28628;BME280;15815;46.760;19.604;2023-04-26T12:54:58;99995.78;;;20.41;30.56
28628;BME280;15815;46.760;19.604;2023-04-26T12:57:23;100012.38;;;20.61;30.17
28628;BME280;15815;46.760;19.604;2023-04-26T12:59:50;99988.47;;;20.49;30.62
28628;BME280;15815;46.760;19.604;2023-04-26T13:02:16;100000.22;;;20.24;30.04
28628;BME280;15815;46.760;19.604;2023-04-26T13:04:43;100006.09;;;20.20;28.69
28628;BME280;15815;46.760;19.604;2023-04-26T13:07:09;99999.22;;;20.54;30.10
28628;BME280;15815;46.760;19.604;2023-04-26T13:09:35;99987.22;;;20.83;29.84
28628;BME280;15815;46.760;19.604;2023-04-26T13:12:00;100001.16;;;20.90;29.93
28628;BME280;15815;46.760;19.604;2023-04-26T13:14:29;100028.38;;;20.67;30.08
28628;BME280;15815;46.760;19.604;2023-04-26T13:17:01;100014.34;;;20.88;29.61